Colorado do Oeste, Brazil
Current Conditions -  °F | °C
As of 2:00 PM on Saturday 25 Oct 2014 (Local Time) from SBVH Reporting Station
Thunderstorm Thunderstorm  
Wind Chill: 82°   Ceiling: 1700
Heat Index: 87°   Visibility: 6mi
Dew Point: 72°   Wind: 12mph
Humidity: 70%   Direction: 330°NNW
Pressure: 29.91"   Gusts: NA
Location:  13.12°S, 60.54°W
Report Text: SBVH 251800Z 33010KT 9999 TS VCSH BKN017 FEW023CB BKN070 28/22 Q1013
Loading
Personal Weather Stations






























Interactive Weather Map
Tropical Storm Tracking
New forecast layout! Learn more

10-Day Weather Forecast

Advertisements
Track Severe Weather on mobile